createdAt,value
2016-07-30T00:00:33.579Z,0
2016-07-30T00:01:33.619Z,0
2016-07-30T00:02:34.399Z,0
2016-07-30T00:03:33.661Z,0
2016-07-30T00:04:33.739Z,0
2016-07-30T00:05:33.724Z,0
2016-07-30T00:06:33.751Z,0
2016-07-30T00:07:34.512Z,0
2016-07-30T00:08:33.845Z,0
2016-07-30T00:09:34.536Z,0
2016-07-30T00:10:33.862Z,0
2016-07-30T00:11:33.875Z,0
2016-07-30T00:12:33.910Z,0
2016-07-30T00:13:33.936Z,0
2016-07-30T00:14:33.960Z,0
2016-07-30T00:15:34.751Z,0
2016-07-30T00:16:34.018Z,0
2016-07-30T00:17:34.038Z,0
2016-07-30T00:18:34.120Z,0
2016-07-30T00:19:34.082Z,0
2016-07-30T00:20:34.816Z,0
2016-07-30T00:21:35.547Z,0
2016-07-30T00:22:34.921Z,0
2016-07-30T00:23:34.196Z,0
2016-07-30T00:24:34.218Z,0
2016-07-30T00:25:34.261Z,0
2016-07-30T00:26:34.277Z,0
2016-07-30T00:27:35.714Z,0
2016-07-30T00:28:34.369Z,0
2016-07-30T00:29:34.360Z,0
2016-07-30T00:30:34.444Z,0
2016-07-30T00:31:35.118Z,0
2016-07-30T00:32:34.453Z,0
2016-07-30T00:33:34.519Z,0
2016-07-30T00:34:34.488Z,0
2016-07-30T00:35:34.516Z,0
2016-07-30T00:36:35.339Z,0
2016-07-30T00:37:34.571Z,0
2016-07-30T00:38:34.615Z,0
2016-07-30T00:39:34.626Z,0
2016-07-30T00:40:34.771Z,0
2016-07-30T00:41:34.723Z,0
2016-07-30T00:42:34.754Z,0
2016-07-30T00:43:34.726Z,0
2016-07-30T00:44:35.459Z,0
2016-07-30T00:45:34.792Z,0
2016-07-30T00:46:34.811Z,0
2016-07-30T00:47:35.547Z,0
2016-07-30T00:48:34.870Z,0
2016-07-30T00:49:34.890Z,0
2016-07-30T00:50:34.921Z,0
2016-07-30T00:51:34.952Z,0
2016-07-30T00:52:34.979Z,0
2016-07-30T00:53:35.756Z,0
2016-07-30T00:54:35.028Z,0
2016-07-30T00:55:35.061Z,0
2016-07-30T00:56:35.141Z,0
2016-07-30T00:57:35.106Z,0
2016-07-30T00:58:35.841Z,0
2016-07-30T00:59:35.178Z,0
2016-07-30T01:00:35.194Z,0
2016-07-30T01:01:35.323Z,0
2016-07-30T01:02:35.950Z,0
2016-07-30T01:03:35.263Z,0
2016-07-30T01:04:35.306Z,0
2016-07-30T01:05:36.035Z,0
2016-07-30T01:06:35.394Z,0
2016-07-30T01:07:35.377Z,0
2016-07-30T01:08:35.458Z,0
2016-07-30T01:09:36.132Z,0
2016-07-30T01:10:35.463Z,0
2016-07-30T01:11:35.485Z,0
2016-07-30T01:12:35.516Z,0
2016-07-30T01:13:35.541Z,0
2016-07-30T01:14:36.269Z,0
2016-07-30T01:15:35.598Z,0
2016-07-30T01:16:36.324Z,0
2016-07-30T01:17:35.655Z,0
2016-07-30T01:18:35.671Z,0
2016-07-30T01:19:35.700Z,0
2016-07-30T01:20:35.725Z,0
2016-07-30T01:21:36.511Z,0
2016-07-30T01:22:35.778Z,0
2016-07-30T01:23:35.815Z,0
2016-07-30T01:24:35.837Z,0
2016-07-30T01:25:35.855Z,0
2016-07-30T01:26:35.891Z,0
2016-07-30T01:27:35.917Z,0
2016-07-30T01:28:35.938Z,0
2016-07-30T01:29:36.012Z,0
2016-07-30T01:30:35.996Z,0
2016-07-30T01:31:36.730Z,0
2016-07-30T01:32:36.099Z,0
2016-07-30T01:33:36.079Z,0
2016-07-30T01:34:36.149Z,0
2016-07-30T01:35:36.135Z,0
2016-07-30T01:36:36.204Z,0
2016-07-30T01:37:36.203Z,0
2016-07-30T01:38:36.218Z,0
2016-07-30T01:39:36.286Z,0
2016-07-30T01:40:36.265Z,0
2016-07-30T01:41:36.286Z,0
2016-07-30T01:42:36.321Z,0
2016-07-30T01:43:36.342Z,0
2016-07-30T01:44:36.368Z,0
2016-07-30T01:45:36.394Z,0
2016-07-30T01:46:36.469Z,0
2016-07-30T01:47:36.451Z,0
2016-07-30T01:48:36.496Z,0
2016-07-30T01:49:37.218Z,0
2016-07-30T01:50:36.536Z,0
2016-07-30T01:51:36.552Z,0
2016-07-30T01:52:36.601Z,0
2016-07-30T01:53:36.607Z,0
2016-07-30T01:54:36.639Z,0
2016-07-30T01:55:36.660Z,0
2016-07-30T01:56:36.697Z,0
2016-07-30T01:57:36.780Z,0
2016-07-30T01:58:38.169Z,0
2016-07-30T01:59:36.776Z,0
2016-07-30T02:00:36.808Z,0
2016-07-30T02:01:37.575Z,0
2016-07-30T02:02:36.846Z,0
2016-07-30T02:03:38.294Z,0
2016-07-30T02:04:36.948Z,0
2016-07-30T02:05:36.934Z,0
2016-07-30T02:06:36.963Z,0
2016-07-30T02:07:36.978Z,0
2016-07-30T02:08:37.811Z,0
2016-07-30T02:09:37.038Z,0
2016-07-30T02:10:37.080Z,0
2016-07-30T02:11:37.101Z,0
2016-07-30T02:12:37.111Z,0
2016-07-30T02:13:37.148Z,0
2016-07-30T02:14:37.166Z,0
2016-07-30T02:15:37.255Z,0
2016-07-30T02:16:37.223Z,0
2016-07-30T02:17:37.292Z,0
2016-07-30T02:18:37.272Z,0
2016-07-30T02:19:37.309Z,0
2016-07-30T02:20:37.442Z,0
2016-07-30T02:21:37.356Z,0
2016-07-30T02:22:37.422Z,0
2016-07-30T02:23:37.466Z,0
2016-07-30T02:24:37.441Z,0
2016-07-30T02:25:37.458Z,0
2016-07-30T02:26:37.557Z,0
2016-07-30T02:27:38.231Z,0
2016-07-30T02:28:37.599Z,0
2016-07-30T02:29:38.981Z,0
2016-07-30T02:30:37.596Z,0
2016-07-30T02:31:37.624Z,0
2016-07-30T02:32:37.649Z,0
2016-07-30T02:33:37.692Z,0
2016-07-30T02:34:37.700Z,0
2016-07-30T02:35:37.775Z,0
2016-07-30T02:36:38.503Z,0
2016-07-30T02:37:37.830Z,0
2016-07-30T02:38:37.863Z,0
2016-07-30T02:39:38.547Z,0
2016-07-30T02:40:37.909Z,0
2016-07-30T02:41:37.919Z,0
2016-07-30T02:42:37.920Z,0
2016-07-30T02:43:37.986Z,0
2016-07-30T02:44:37.972Z,0
2016-07-30T02:45:37.993Z,0
2016-07-30T02:46:38.022Z,0
2016-07-30T02:47:38.054Z,0
2016-07-30T02:48:38.084Z,0
2016-07-30T02:49:38.103Z,0
2016-07-30T02:50:38.130Z,0
2016-07-30T02:51:38.147Z,0
2016-07-30T02:53:38.201Z,0
2016-07-30T02:54:38.226Z,0
2016-07-30T02:55:39.014Z,0
2016-07-30T02:56:38.279Z,0
2016-07-30T02:57:38.312Z,0
2016-07-30T02:58:38.347Z,0
2016-07-30T02:59:39.075Z,0
2016-07-30T03:00:38.387Z,0
2016-07-30T03:01:38.415Z,0
2016-07-30T03:02:39.161Z,0
2016-07-30T03:03:38.466Z,0
2016-07-30T03:04:39.263Z,0
2016-07-30T03:05:38.530Z,0
2016-07-30T03:06:38.617Z,0
2016-07-30T03:08:38.599Z,0
2016-07-30T03:09:38.642Z,0
2016-07-30T03:10:39.359Z,0
2016-07-30T03:11:38.734Z,0
2016-07-30T03:12:38.707Z,0
2016-07-30T03:13:38.731Z,0
2016-07-30T03:14:38.804Z,0
2016-07-30T03:15:38.790Z,0
2016-07-30T03:16:38.816Z,0
2016-07-30T03:17:38.834Z,0
2016-07-30T03:18:38.859Z,0
2016-07-30T03:19:38.887Z,0
2016-07-30T03:20:38.923Z,0
2016-07-30T03:21:40.364Z,0
2016-07-30T03:23:38.993Z,0
2016-07-30T03:24:39.017Z,0
2016-07-30T03:25:39.050Z,0
2016-07-30T03:26:39.783Z,0
2016-07-30T03:27:39.108Z,0
2016-07-30T03:28:39.127Z,0
2016-07-30T03:29:39.150Z,0
2016-07-30T03:30:39.182Z,0
2016-07-30T03:31:39.210Z,0
2016-07-30T03:32:39.232Z,0
2016-07-30T03:33:39.256Z,0
2016-07-30T03:34:39.279Z,0
2016-07-30T03:35:40.025Z,0
2016-07-30T03:36:39.348Z,0
2016-07-30T03:38:39.388Z,0
2016-07-30T03:39:39.418Z,0
2016-07-30T03:40:39.446Z,0
2016-07-30T03:41:39.463Z,0
2016-07-30T03:42:39.507Z,0
2016-07-30T03:43:39.516Z,0
2016-07-30T03:44:39.543Z,0
2016-07-30T03:45:39.685Z,0
2016-07-30T03:46:39.598Z,0
2016-07-30T03:47:40.340Z,0
2016-07-30T03:48:39.666Z,0
2016-07-30T03:49:39.673Z,0
2016-07-30T03:50:39.701Z,0
2016-07-30T03:51:39.730Z,0
2016-07-30T03:52:39.762Z,0
2016-07-30T03:53:39.783Z,0
2016-07-30T03:54:39.808Z,0
2016-07-30T03:55:39.880Z,0
2016-07-30T03:56:39.857Z,0
2016-07-30T03:57:39.998Z,0
2016-07-30T03:58:39.913Z,0
2016-07-30T03:59:39.933Z,0
2016-07-30T04:00:39.969Z,0
2016-07-30T04:01:39.988Z,0
2016-07-30T04:02:40.027Z,0
2016-07-30T04:03:40.043Z,0
2016-07-30T04:04:40.066Z,0
2016-07-30T04:05:40.800Z,0
2016-07-30T04:06:40.120Z,0
2016-07-30T04:07:40.212Z,0
2016-07-30T04:08:40.180Z,0
2016-07-30T04:09:40.198Z,0
2016-07-30T04:10:40.224Z,0
2016-07-30T04:11:40.259Z,0
2016-07-30T04:12:40.277Z,0
2016-07-30T04:13:40.303Z,0
2016-07-30T04:14:40.324Z,0
2016-07-30T04:15:40.359Z,0
2016-07-30T04:16:40.392Z,0
2016-07-30T04:17:40.417Z,0
2016-07-30T04:18:40.427Z,0
2016-07-30T04:19:40.461Z,0
2016-07-30T04:20:40.485Z,0
2016-07-30T04:21:40.505Z,0
2016-07-30T04:22:40.557Z,0
2016-07-30T04:23:40.599Z,0
2016-07-30T04:24:40.585Z,0
2016-07-30T04:25:40.618Z,0
2016-07-30T04:26:40.639Z,0
2016-07-30T04:27:40.659Z,0
2016-07-30T04:28:40.704Z,0
2016-07-30T04:29:41.423Z,0
2016-07-30T04:30:40.760Z,0
2016-07-30T04:31:40.770Z,0
2016-07-30T04:32:40.799Z,0
2016-07-30T04:33:40.943Z,0
2016-07-30T04:34:40.850Z,5
2016-07-30T04:35:40.946Z,5
2016-07-30T04:36:40.913Z,5
2016-07-30T04:37:40.920Z,5
2016-07-30T04:38:40.971Z,0
2016-07-30T04:39:40.976Z,0
2016-07-30T04:40:41.005Z,0
2016-07-30T04:41:41.031Z,0
2016-07-30T04:42:41.184Z,5
2016-07-30T04:43:42.000Z,5
2016-07-30T04:44:41.112Z,5
2016-07-30T04:45:41.135Z,5
2016-07-30T04:46:41.165Z,5
2016-07-30T04:47:42.598Z,5
2016-07-30T04:48:41.219Z,5
2016-07-30T04:49:41.293Z,5
2016-07-30T04:50:41.264Z,5
2016-07-30T04:51:42.002Z,5
2016-07-30T04:52:41.316Z,5
2016-07-30T04:53:41.341Z,5
2016-07-30T04:54:41.369Z,5
2016-07-30T04:55:41.413Z,5
2016-07-30T04:56:41.420Z,5
2016-07-30T04:57:42.162Z,5
2016-07-30T04:58:41.643Z,5
2016-07-30T04:59:41.496Z,5
2016-07-30T05:00:41.528Z,5
2016-07-30T05:01:41.554Z,5
2016-07-30T05:02:41.572Z,5
2016-07-30T05:03:41.605Z,5
2016-07-30T05:04:41.631Z,10
2016-07-30T05:05:41.659Z,10
2016-07-30T05:06:41.681Z,10
2016-07-30T05:07:41.705Z,10
2016-07-30T05:08:41.735Z,10
2016-07-30T05:09:42.475Z,10
2016-07-30T05:10:41.786Z,10
2016-07-30T05:11:41.811Z,10
2016-07-30T05:12:41.852Z,10
2016-07-30T05:13:41.867Z,10
2016-07-30T05:14:41.908Z,10
2016-07-30T05:15:41.919Z,10
2016-07-30T05:16:41.940Z,10
2016-07-30T05:17:41.963Z,10
2016-07-30T05:18:42.049Z,10
2016-07-30T05:19:42.028Z,10
2016-07-30T05:20:42.051Z,10
2016-07-30T05:21:42.065Z,10
2016-07-30T05:22:42.097Z,10
2016-07-30T05:23:42.341Z,10
2016-07-30T05:24:42.144Z,10
2016-07-30T05:25:42.168Z,10
2016-07-30T05:26:42.202Z,15
2016-07-30T05:27:42.228Z,15
2016-07-30T05:28:42.252Z,15
2016-07-30T05:29:42.280Z,15
2016-07-30T05:30:42.317Z,15
2016-07-30T05:31:42.332Z,10
2016-07-30T05:32:42.354Z,10
2016-07-30T05:33:42.388Z,10
2016-07-30T05:34:42.419Z,10
2016-07-30T05:35:42.448Z,5
2016-07-30T05:36:42.515Z,5
2016-07-30T05:37:42.499Z,5
2016-07-30T05:38:42.509Z,10
2016-07-30T05:39:42.547Z,10
2016-07-30T05:40:42.626Z,10
2016-07-30T05:41:43.315Z,15
2016-07-30T05:42:42.625Z,15
2016-07-30T05:43:42.646Z,15
2016-07-30T05:44:42.674Z,15
2016-07-30T05:45:42.703Z,10
2016-07-30T05:46:42.724Z,10
2016-07-30T05:47:42.746Z,10
2016-07-30T05:48:42.784Z,10
2016-07-30T05:49:42.810Z,10
2016-07-30T05:50:42.835Z,10
2016-07-30T05:51:42.853Z,10
2016-07-30T05:52:42.886Z,10
2016-07-30T05:53:42.906Z,15
2016-07-30T05:54:42.950Z,15
2016-07-30T05:55:44.393Z,10
2016-07-30T05:56:42.990Z,10
2016-07-30T05:57:43.015Z,10
2016-07-30T05:58:43.155Z,15
2016-07-30T05:59:43.167Z,15
2016-07-30T06:00:43.808Z,15
2016-07-30T06:01:43.230Z,15
2016-07-30T06:02:43.239Z,10
2016-07-30T06:03:43.279Z,10
2016-07-30T06:04:43.272Z,10
2016-07-30T06:05:43.280Z,15
2016-07-30T06:06:43.288Z,15
2016-07-30T06:07:43.298Z,10
2016-07-30T06:08:43.309Z,10
2016-07-30T06:09:43.421Z,10
2016-07-30T06:10:43.444Z,10
2016-07-30T06:11:43.462Z,15
2016-07-30T06:12:44.131Z,15
2016-07-30T06:13:43.487Z,15
2016-07-30T06:14:43.466Z,15
2016-07-30T06:15:43.498Z,15
2016-07-30T06:16:43.524Z,15
2016-07-30T06:17:43.548Z,10
2016-07-30T06:18:43.578Z,10
2016-07-30T06:19:43.599Z,10
2016-07-30T06:20:43.638Z,5
2016-07-30T06:21:43.647Z,5
2016-07-30T06:22:43.677Z,5
2016-07-30T06:23:43.736Z,5
2016-07-30T06:24:43.746Z,5
2016-07-30T06:25:43.773Z,5
2016-07-30T06:26:43.783Z,5
2016-07-30T06:27:43.809Z,5
2016-07-30T06:28:43.824Z,5
2016-07-30T06:29:43.858Z,5
2016-07-30T06:30:43.881Z,5
2016-07-30T06:31:43.905Z,5
2016-07-30T06:32:43.936Z,0
2016-07-30T06:33:43.959Z,0
2016-07-30T06:34:43.985Z,0
2016-07-30T06:35:44.017Z,0
2016-07-30T06:36:44.042Z,5
2016-07-30T06:37:44.776Z,5
2016-07-30T06:38:44.093Z,5
2016-07-30T06:39:44.121Z,5
2016-07-30T06:40:44.153Z,5
2016-07-30T06:41:44.166Z,5
2016-07-30T06:42:44.201Z,5
2016-07-30T06:43:44.225Z,5
2016-07-30T06:44:44.247Z,5
2016-07-30T06:45:44.276Z,5
2016-07-30T06:46:44.313Z,5
2016-07-30T06:47:45.047Z,5
2016-07-30T06:48:44.360Z,5
2016-07-30T06:49:44.382Z,5
2016-07-30T06:50:45.357Z,5
2016-07-30T06:51:45.217Z,5
2016-07-30T06:52:45.270Z,5
2016-07-30T06:53:45.414Z,5
2016-07-30T06:54:44.519Z,5
2016-07-30T06:55:45.427Z,10
2016-07-30T06:56:44.570Z,10
2016-07-30T06:57:44.596Z,10
2016-07-30T06:58:44.619Z,10
2016-07-30T06:59:44.655Z,10
2016-07-30T07:00:44.681Z,10
2016-07-30T07:01:44.708Z,10
2016-07-30T07:02:44.738Z,15
2016-07-30T07:03:44.757Z,15
2016-07-30T07:04:45.558Z,15
2016-07-30T07:05:44.803Z,20
2016-07-30T07:06:44.844Z,20
2016-07-30T07:07:44.863Z,25
2016-07-30T07:08:45.590Z,20
2016-07-30T07:09:44.913Z,20
2016-07-30T07:10:44.943Z,20
2016-07-30T07:11:45.095Z,25
2016-07-30T07:12:45.088Z,20
2016-07-30T07:13:45.136Z,25
2016-07-30T07:14:45.143Z,25
2016-07-30T07:15:45.790Z,25
2016-07-30T07:16:45.328Z,25
2016-07-30T07:17:45.347Z,25
2016-07-30T07:18:45.360Z,25
2016-07-30T07:19:45.386Z,25
2016-07-30T07:20:45.916Z,25
2016-07-30T07:21:45.411Z,25
2016-07-30T07:22:45.419Z,25
2016-07-30T07:23:45.419Z,30
2016-07-30T07:24:46.025Z,30
2016-07-30T07:25:45.438Z,25
2016-07-30T07:26:45.493Z,25
2016-07-30T07:27:45.524Z,30
2016-07-30T07:28:46.174Z,30
2016-07-30T07:29:45.519Z,30
2016-07-30T07:30:45.531Z,30
2016-07-30T07:31:45.578Z,30
2016-07-30T07:32:45.639Z,30
2016-07-30T07:33:45.571Z,30
2016-07-30T07:34:45.586Z,35
2016-07-30T07:35:45.623Z,30
2016-07-30T07:36:45.636Z,30
2016-07-30T07:37:45.766Z,30
2016-07-30T07:38:45.730Z,30
2016-07-30T07:39:45.765Z,25
2016-07-30T07:40:45.752Z,30
2016-07-30T07:41:45.772Z,30
2016-07-30T07:42:45.809Z,30
2016-07-30T07:43:45.830Z,35
2016-07-30T07:44:46.563Z,35
2016-07-30T07:45:46.588Z,35
2016-07-30T07:46:45.918Z,35
2016-07-30T07:47:46.092Z,40
2016-07-30T07:48:45.963Z,45
2016-07-30T07:49:46.002Z,40
2016-07-30T07:50:46.148Z,35
2016-07-30T07:51:46.042Z,30
2016-07-30T07:52:46.116Z,25
2016-07-30T07:53:46.118Z,20
2016-07-30T07:54:46.131Z,15
2016-07-30T07:55:46.195Z,15
2016-07-30T07:56:46.236Z,20
2016-07-30T07:57:46.209Z,20
2016-07-30T07:58:46.339Z,20
2016-07-30T07:59:46.279Z,20
2016-07-30T08:00:46.334Z,20
2016-07-30T08:01:47.045Z,20
2016-07-30T08:02:46.347Z,20
2016-07-30T08:03:46.378Z,10
2016-07-30T08:04:46.396Z,10
2016-07-30T08:05:46.473Z,10
2016-07-30T08:06:46.447Z,10
2016-07-30T08:07:46.674Z,10
2016-07-30T08:08:46.651Z,10
2016-07-30T08:09:46.542Z,10
2016-07-30T08:10:46.554Z,5
2016-07-30T08:11:46.592Z,10
2016-07-30T08:12:46.625Z,20
2016-07-30T08:13:46.642Z,15
2016-07-30T08:14:46.672Z,10
2016-07-30T08:15:48.275Z,10
2016-07-30T08:16:47.611Z,10
2016-07-30T08:17:46.756Z,5
2016-07-30T08:18:46.792Z,5
2016-07-30T08:19:47.060Z,5
2016-07-30T08:20:46.897Z,10
2016-07-30T08:21:46.912Z,15
2016-07-30T08:22:46.946Z,10
2016-07-30T08:23:48.325Z,10
2016-07-30T08:24:47.739Z,10
2016-07-30T08:25:47.485Z,10
2016-07-30T08:26:47.000Z,15
2016-07-30T08:27:47.025Z,25
2016-07-30T08:28:47.057Z,35
2016-07-30T08:29:47.849Z,35
2016-07-30T08:30:47.316Z,35
2016-07-30T08:31:47.156Z,30
2016-07-30T08:32:48.001Z,30
2016-07-30T08:33:47.311Z,35
2016-07-30T08:34:47.320Z,35
2016-07-30T08:35:47.256Z,40
2016-07-30T08:36:47.285Z,45
2016-07-30T08:37:47.308Z,35
2016-07-30T08:38:47.450Z,30
2016-07-30T08:39:47.522Z,20
2016-07-30T08:40:47.495Z,30
2016-07-30T08:41:47.432Z,35
2016-07-30T08:42:47.441Z,35
2016-07-30T08:43:47.468Z,35
2016-07-30T08:44:47.499Z,30
2016-07-30T08:45:47.516Z,30
2016-07-30T08:46:47.655Z,35
2016-07-30T08:47:48.285Z,30
2016-07-30T08:48:47.610Z,30
2016-07-30T08:49:47.686Z,30
2016-07-30T08:50:47.659Z,30
2016-07-30T08:51:47.681Z,30
2016-07-30T08:52:47.719Z,35
2016-07-30T08:53:47.786Z,45
2016-07-30T08:54:47.776Z,40
2016-07-30T08:55:48.007Z,35
2016-07-30T08:56:47.831Z,35
2016-07-30T08:57:47.905Z,35
2016-07-30T08:58:47.881Z,35
2016-07-30T08:59:47.917Z,30
2016-07-30T09:00:48.645Z,25
2016-07-30T09:01:47.967Z,20
2016-07-30T09:02:48.706Z,20
2016-07-30T09:03:48.033Z,25
2016-07-30T09:04:48.045Z,35
2016-07-30T09:05:48.085Z,30
2016-07-30T09:06:48.832Z,25
2016-07-30T09:07:48.152Z,30
2016-07-30T09:08:48.198Z,20
2016-07-30T09:09:48.253Z,20
2016-07-30T09:10:48.273Z,30
2016-07-30T09:11:48.247Z,35
2016-07-30T09:12:48.278Z,30
2016-07-30T09:13:48.311Z,25
2016-07-30T09:14:48.345Z,25
2016-07-30T09:15:48.400Z,25
2016-07-30T09:16:48.418Z,40
2016-07-30T09:17:49.132Z,30
2016-07-30T09:18:48.447Z,30
2016-07-30T09:19:48.519Z,35
2016-07-30T09:20:49.207Z,35
2016-07-30T09:21:48.531Z,35
2016-07-30T09:22:48.680Z,35
2016-07-30T09:23:48.628Z,25
2016-07-30T09:24:48.613Z,20
2016-07-30T09:25:48.647Z,20
2016-07-30T09:26:48.668Z,25
2016-07-30T09:27:48.694Z,30
2016-07-30T09:28:49.430Z,30
2016-07-30T09:29:48.764Z,40
2016-07-30T09:30:48.781Z,40
2016-07-30T09:31:49.519Z,35
2016-07-30T09:32:48.834Z,45
2016-07-30T09:33:49.065Z,40
2016-07-30T09:34:49.605Z,40
2016-07-30T09:35:48.920Z,45
2016-07-30T09:36:48.952Z,50
2016-07-30T09:37:49.688Z,40
2016-07-30T09:38:49.015Z,30
2016-07-30T09:39:49.045Z,30
2016-07-30T09:40:49.772Z,30
2016-07-30T09:41:49.097Z,30
2016-07-30T09:42:49.139Z,30
2016-07-30T09:43:49.209Z,25
2016-07-30T09:44:49.186Z,25
2016-07-30T09:45:49.215Z,30
2016-07-30T09:46:49.247Z,30
2016-07-30T09:47:49.268Z,20
2016-07-30T09:48:50.016Z,25
2016-07-30T09:49:50.034Z,35
2016-07-30T09:50:49.356Z,45
2016-07-30T09:51:49.382Z,55
2016-07-30T09:52:49.413Z,50
2016-07-30T09:53:49.443Z,55
2016-07-30T09:54:49.467Z,60
2016-07-30T09:55:49.503Z,55
2016-07-30T09:56:49.537Z,55
2016-07-30T09:57:49.559Z,55
2016-07-30T09:58:49.602Z,45
2016-07-30T09:59:49.624Z,45
2016-07-30T10:00:49.644Z,55
2016-07-30T10:01:49.679Z,50
2016-07-30T10:02:49.704Z,45
2016-07-30T10:03:51.214Z,40
2016-07-30T10:04:49.765Z,35
2016-07-30T10:05:49.802Z,40
2016-07-30T10:06:49.822Z,40
2016-07-30T10:07:49.864Z,45
2016-07-30T10:08:49.882Z,40
2016-07-30T10:09:49.916Z,35
2016-07-30T10:10:49.937Z,45
2016-07-30T10:11:49.971Z,45
2016-07-30T10:12:50.011Z,60
2016-07-30T10:13:50.025Z,55
2016-07-30T10:14:50.180Z,50
2016-07-30T10:15:51.027Z,45
2016-07-30T10:16:50.334Z,40
2016-07-30T10:17:50.347Z,45
2016-07-30T10:18:50.895Z,45
2016-07-30T10:19:50.357Z,35
2016-07-30T10:20:50.377Z,30
2016-07-30T10:21:50.373Z,35
2016-07-30T10:22:50.385Z,45
2016-07-30T10:23:50.523Z,55
2016-07-30T10:24:50.534Z,50
2016-07-30T10:25:51.085Z,35
2016-07-30T10:26:50.565Z,30
2016-07-30T10:27:50.519Z,30
2016-07-30T10:28:50.520Z,30
2016-07-30T10:29:50.523Z,20
2016-07-30T10:30:50.530Z,30
2016-07-30T10:31:51.274Z,30
2016-07-30T10:32:51.294Z,30
2016-07-30T10:33:51.333Z,30
2016-07-30T10:34:51.361Z,30
2016-07-30T10:35:50.687Z,30
2016-07-30T10:36:50.712Z,30
2016-07-30T10:37:50.745Z,30
2016-07-30T10:38:50.785Z,30
2016-07-30T10:39:50.805Z,30
2016-07-30T10:40:50.844Z,30
2016-07-30T10:41:51.385Z,30
2016-07-30T10:42:51.662Z,30
2016-07-30T10:43:52.515Z,35
2016-07-30T10:44:50.960Z,40
2016-07-30T10:45:51.080Z,50
2016-07-30T10:46:51.104Z,65
2016-07-30T10:47:51.108Z,70
2016-07-30T10:48:51.078Z,65
2016-07-30T10:49:51.245Z,55
2016-07-30T10:50:51.167Z,50
2016-07-30T10:51:51.182Z,65
2016-07-30T10:52:51.226Z,65
2016-07-30T10:53:51.365Z,55
2016-07-30T10:54:51.270Z,50
2016-07-30T10:55:51.387Z,50
2016-07-30T10:56:51.437Z,50
2016-07-30T10:57:51.539Z,45
2016-07-30T10:58:51.402Z,40
2016-07-30T10:59:51.417Z,40
2016-07-30T11:00:51.567Z,30
2016-07-30T11:01:51.633Z,20
2016-07-30T11:02:51.507Z,15
2016-07-30T11:03:51.545Z,15
2016-07-30T11:04:51.572Z,15
2016-07-30T11:05:52.303Z,15
2016-07-30T11:06:51.637Z,20
2016-07-30T11:07:51.663Z,25
2016-07-30T11:08:51.699Z,30
2016-07-30T11:09:51.743Z,30
2016-07-30T11:10:51.762Z,30
2016-07-30T11:11:51.788Z,30
2016-07-30T11:12:51.840Z,30
2016-07-30T11:13:51.930Z,35
2016-07-30T11:14:51.898Z,40
2016-07-30T11:15:52.002Z,40
2016-07-30T11:16:51.939Z,50
2016-07-30T11:17:52.035Z,50
2016-07-30T11:18:52.711Z,45
2016-07-30T11:19:52.792Z,40
2016-07-30T11:20:52.071Z,35
2016-07-30T11:21:52.126Z,35
2016-07-30T11:22:52.226Z,35
2016-07-30T11:23:52.203Z,25
2016-07-30T11:24:52.289Z,20
2016-07-30T11:25:52.224Z,25
2016-07-30T11:26:52.265Z,30
2016-07-30T11:27:52.410Z,35
2016-07-30T11:28:52.318Z,25
2016-07-30T11:29:53.983Z,25
2016-07-30T11:30:52.397Z,20
2016-07-30T11:31:52.419Z,15
2016-07-30T11:32:52.445Z,20
2016-07-30T11:33:52.478Z,30
2016-07-30T11:34:52.507Z,30
2016-07-30T11:35:52.543Z,20
2016-07-30T11:36:52.586Z,15
2016-07-30T11:37:53.334Z,20
2016-07-30T11:38:52.656Z,20
2016-07-30T11:39:52.664Z,35
2016-07-30T11:40:52.714Z,45
2016-07-30T11:41:52.726Z,50
2016-07-30T11:42:52.759Z,40
2016-07-30T11:43:52.790Z,30
2016-07-30T11:44:52.820Z,20
2016-07-30T11:45:52.855Z,20
2016-07-30T11:46:52.886Z,20
2016-07-30T11:47:52.928Z,20
2016-07-30T11:48:52.945Z,25
2016-07-30T11:49:53.029Z,35
2016-07-30T11:50:53.026Z,45
2016-07-30T11:51:53.751Z,50
2016-07-30T11:52:53.064Z,65
2016-07-30T11:53:53.860Z,90
2016-07-30T11:54:53.124Z,100
2016-07-30T11:55:53.174Z,90
2016-07-30T11:56:53.196Z,65
2016-07-30T11:57:53.262Z,45
2016-07-30T11:58:53.372Z,70
2016-07-30T11:59:54.052Z,45
2016-07-30T12:00:53.346Z,70
2016-07-30T12:01:53.353Z,55
2016-07-30T12:02:53.627Z,40
2016-07-30T12:03:53.424Z,50
2016-07-30T12:04:53.445Z,60
2016-07-30T12:05:53.484Z,90
2016-07-30T12:06:54.959Z,70
2016-07-30T12:07:53.704Z,50
2016-07-30T12:08:53.586Z,65
2016-07-30T12:10:53.652Z,60
2016-07-30T12:11:53.774Z,80
2016-07-30T12:12:53.707Z,80
2016-07-30T12:13:53.747Z,75
2016-07-30T12:14:53.774Z,65
2016-07-30T12:15:53.802Z,65
2016-07-30T12:16:53.835Z,60
2016-07-30T12:17:53.877Z,50
2016-07-30T12:18:55.305Z,50
2016-07-30T12:19:53.933Z,50
2016-07-30T12:20:53.963Z,50
2016-07-30T12:21:54.198Z,50
2016-07-30T12:22:54.020Z,50
2016-07-30T12:23:54.760Z,50
2016-07-30T12:25:54.569Z,50
2016-07-30T12:26:54.553Z,50
2016-07-30T12:27:55.482Z,50
2016-07-30T12:28:54.986Z,50
2016-07-30T12:29:55.675Z,50
2016-07-30T12:30:54.859Z,50
2016-07-30T12:31:54.598Z,50
2016-07-30T12:32:55.672Z,50
2016-07-30T12:33:54.705Z,50
2016-07-30T12:34:55.329Z,50
2016-07-30T12:35:54.630Z,50
2016-07-30T12:36:54.779Z,50
2016-07-30T12:37:56.084Z,50
2016-07-30T12:38:55.175Z,45
2016-07-30T12:40:55.696Z,65
2016-07-30T12:41:56.150Z,60
2016-07-30T12:42:54.994Z,80
2016-07-30T12:43:55.008Z,60
2016-07-30T12:44:55.104Z,50
2016-07-30T12:45:54.781Z,50
2016-07-30T12:46:55.508Z,75
2016-07-30T12:47:55.009Z,100
2016-07-30T12:48:55.843Z,65
2016-07-30T12:49:55.041Z,65
2016-07-30T12:50:55.101Z,60
2016-07-30T12:51:55.069Z,65
2016-07-30T12:52:55.147Z,70
2016-07-30T12:53:55.165Z,60
2016-07-30T12:55:55.130Z,70
2016-07-30T12:56:55.160Z,70
2016-07-30T12:57:56.076Z,80
2016-07-30T12:58:55.373Z,75
2016-07-30T12:59:55.249Z,75
2016-07-30T13:00:55.271Z,75
2016-07-30T13:01:56.049Z,80
2016-07-30T13:02:56.047Z,60
2016-07-30T13:03:55.368Z,50
2016-07-30T13:04:55.401Z,60
2016-07-30T13:05:56.168Z,70
2016-07-30T13:06:55.729Z,60
2016-07-30T13:07:56.207Z,60
2016-07-30T13:08:55.567Z,60
2016-07-30T13:09:55.635Z,60
2016-07-30T13:10:55.644Z,50
2016-07-30T13:11:56.552Z,60
2016-07-30T13:12:56.469Z,35
2016-07-30T13:13:55.961Z,55
2016-07-30T13:14:55.943Z,55
2016-07-30T13:15:55.840Z,60
2016-07-30T13:16:55.846Z,60
2016-07-30T13:17:56.574Z,65
2016-07-30T13:18:56.591Z,65
2016-07-30T13:19:56.012Z,60
2016-07-30T13:20:56.680Z,40
2016-07-30T13:21:56.029Z,40
2016-07-30T13:22:56.107Z,35
2016-07-30T13:23:56.045Z,45
2016-07-30T13:24:56.083Z,75
2016-07-30T13:25:56.110Z,100
2016-07-30T13:26:56.867Z,55
2016-07-30T13:27:57.905Z,35
2016-07-30T13:28:56.220Z,30
2016-07-30T13:29:56.265Z,30
2016-07-30T13:30:56.281Z,25
2016-07-30T13:31:57.065Z,25
2016-07-30T13:32:56.363Z,30
2016-07-30T13:33:57.110Z,70
2016-07-30T13:34:56.429Z,60
2016-07-30T13:35:57.200Z,75
2016-07-30T13:36:56.516Z,95
2016-07-30T13:37:57.235Z,55
2016-07-30T13:38:58.226Z,75
2016-07-30T13:39:56.588Z,75
2016-07-30T13:40:56.632Z,45
2016-07-30T13:41:56.675Z,50
2016-07-30T13:42:56.718Z,85
2016-07-30T13:43:57.466Z,90
2016-07-30T13:44:56.774Z,85
2016-07-30T13:45:56.804Z,90
2016-07-30T13:46:57.616Z,80
2016-07-30T13:47:56.890Z,40
2016-07-30T13:48:58.535Z,40
2016-07-30T13:49:58.390Z,65
2016-07-30T13:50:57.838Z,50
2016-07-30T13:51:57.011Z,40
2016-07-30T13:52:57.042Z,45
2016-07-30T13:53:57.089Z,95
2016-07-30T13:54:57.120Z,90
2016-07-30T13:55:58.018Z,90
2016-07-30T13:56:57.187Z,80
2016-07-30T13:57:58.168Z,70
2016-07-30T13:58:57.257Z,65
2016-07-30T13:59:57.291Z,65
2016-07-30T14:00:57.328Z,65
2016-07-30T14:01:58.097Z,65
2016-07-30T14:02:57.395Z,65
2016-07-30T14:03:57.437Z,65
2016-07-30T14:04:57.462Z,65
2016-07-30T14:05:57.514Z,25
2016-07-30T14:06:57.643Z,30
2016-07-30T14:07:59.258Z,45
2016-07-30T14:08:58.575Z,50
2016-07-30T14:09:58.344Z,50
2016-07-30T14:10:57.889Z,55
2016-07-30T14:11:57.890Z,55
2016-07-30T14:12:58.054Z,55
2016-07-30T14:13:57.943Z,60
2016-07-30T14:14:57.946Z,65
2016-07-30T14:15:59.306Z,60
2016-07-30T14:16:57.994Z,100
2016-07-30T14:17:58.001Z,105
2016-07-30T14:18:58.037Z,95
2016-07-30T14:19:58.045Z,80
2016-07-30T14:20:58.056Z,70
2016-07-30T14:21:58.071Z,65
2016-07-30T14:22:58.107Z,65
2016-07-30T14:23:58.153Z,60
2016-07-30T14:24:58.182Z,60
2016-07-30T14:25:59.620Z,60
2016-07-30T14:26:58.987Z,60
2016-07-30T14:28:00.527Z,65
2016-07-30T14:28:58.319Z,65
2016-07-30T14:29:58.363Z,70
2016-07-30T14:30:58.422Z,75
2016-07-30T14:31:58.441Z,75
2016-07-30T14:32:59.214Z,65
2016-07-30T14:33:59.258Z,75
2016-07-30T14:34:58.540Z,75
2016-07-30T14:35:58.579Z,75